sensor_id;sensor_type;location;lat;lon;timestamp;pressure;altitude;pressure_sealevel;temperature;humidity
64078;BME280;51039;49.696;10.808;2022-08-19T00:01:33;97800.16;;;19.95;89.48
64078;BME280;51039;49.696;10.808;2022-08-19T00:04:02;97806.88;;;19.98;89.81
64078;BME280;51039;49.696;10.808;2022-08-19T00:06:28;97815.22;;;19.96;89.84
64078;BME280;51039;49.696;10.808;2022-08-19T00:08:55;97811.47;;;19.92;90.56
64078;BME280;51039;49.696;10.808;2022-08-19T00:11:22;97806.63;;;19.89;90.57
64078;BME280;51039;49.696;10.808;2022-08-19T00:13:47;97797.53;;;19.85;91.26
64078;BME280;51039;49.696;10.808;2022-08-19T00:16:15;97789.72;;;19.89;90.97
64078;BME280;51039;49.696;10.808;2022-08-19T00:18:45;97791.03;;;19.91;90.10
64078;BME280;51039;49.696;10.808;2022-08-19T00:21:11;97784.06;;;19.90;90.59
64078;BME280;51039;49.696;10.808;2022-08-19T00:23:36;97786.19;;;19.93;90.48
64078;BME280;51039;49.696;10.808;2022-08-19T00:26:05;97790.25;;;19.86;90.61
64078;BME280;51039;49.696;10.808;2022-08-19T00:28:30;97788.34;;;19.91;90.97
64078;BME280;51039;49.696;10.808;2022-08-19T00:30:56;97779.47;;;19.96;90.53
64078;BME280;51039;49.696;10.808;2022-08-19T00:33:22;97784.59;;;19.92;90.38
64078;BME280;51039;49.696;10.808;2022-08-19T00:35:47;97777.84;;;19.90;90.54
64078;BME280;51039;49.696;10.808;2022-08-19T00:38:12;97779.75;;;19.89;90.82
64078;BME280;51039;49.696;10.808;2022-08-19T00:40:38;97779.50;;;19.86;91.03
64078;BME280;51039;49.696;10.808;2022-08-19T00:43:07;97776.03;;;19.80;91.85
64078;BME280;51039;49.696;10.808;2022-08-19T00:45:37;97761.81;;;19.74;92.28
64078;BME280;51039;49.696;10.808;2022-08-19T00:48:07;97768.56;;;19.72;92.51
64078;BME280;51039;49.696;10.808;2022-08-19T00:50:33;97776.38;;;19.63;92.14
64078;BME280;51039;49.696;10.808;2022-08-19T00:52:59;97778.81;;;19.54;92.93
64078;BME280;51039;49.696;10.808;2022-08-19T00:55:29;97783.94;;;19.51;93.60
64078;BME280;51039;49.696;10.808;2022-08-19T00:57:58;97789.31;;;19.46;93.86
64078;BME280;51039;49.696;10.808;2022-08-19T01:00:28;97792.84;;;19.41;94.11
64078;BME280;51039;49.696;10.808;2022-08-19T01:02:53;97799.03;;;19.36;94.14
64078;BME280;51039;49.696;10.808;2022-08-19T01:05:20;97803.06;;;19.34;94.02
64078;BME280;51039;49.696;10.808;2022-08-19T01:07:49;97812.75;;;19.35;94.27
64078;BME280;51039;49.696;10.808;2022-08-19T01:10:17;97813.00;;;19.33;94.58
64078;BME280;51039;49.696;10.808;2022-08-19T01:12:49;97808.47;;;19.29;94.40
64078;BME280;51039;49.696;10.808;2022-08-19T01:15:17;97803.63;;;19.31;94.34
64078;BME280;51039;49.696;10.808;2022-08-19T01:17:46;97807.63;;;19.38;94.01
64078;BME280;51039;49.696;10.808;2022-08-19T01:20:13;97805.47;;;19.40;94.35
64078;BME280;51039;49.696;10.808;2022-08-19T01:22:43;97808.13;;;19.46;93.96
64078;BME280;51039;49.696;10.808;2022-08-19T01:25:22;97807.84;;;19.47;94.03
64078;BME280;51039;49.696;10.808;2022-08-19T01:27:53;97814.06;;;19.48;93.63
64078;BME280;51039;49.696;10.808;2022-08-19T01:30:21;97820.22;;;19.48;93.82
64078;BME280;51039;49.696;10.808;2022-08-19T01:32:50;97825.59;;;19.48;93.60
64078;BME280;51039;49.696;10.808;2022-08-19T01:35:16;97834.19;;;19.50;93.27
64078;BME280;51039;49.696;10.808;2022-08-19T01:37:45;97837.38;;;19.52;94.11
64078;BME280;51039;49.696;10.808;2022-08-19T01:40:12;97837.13;;;19.43;94.80
64078;BME280;51039;49.696;10.808;2022-08-19T01:42:37;97830.97;;;19.48;94.65
64078;BME280;51039;49.696;10.808;2022-08-19T01:45:03;97840.34;;;19.46;93.04
64078;BME280;51039;49.696;10.808;2022-08-19T01:47:29;97844.13;;;19.45;94.08
64078;BME280;51039;49.696;10.808;2022-08-19T01:49:55;97844.41;;;19.43;94.69
64078;BME280;51039;49.696;10.808;2022-08-19T01:52:20;97846.56;;;19.41;94.88
64078;BME280;51039;49.696;10.808;2022-08-19T01:54:46;97841.22;;;19.31;94.89
64078;BME280;51039;49.696;10.808;2022-08-19T01:57:12;97843.59;;;19.37;94.45
64078;BME280;51039;49.696;10.808;2022-08-19T01:59:39;97843.34;;;19.44;93.86
64078;BME280;51039;49.696;10.808;2022-08-19T02:02:06;97844.13;;;19.45;93.84
64078;BME280;51039;49.696;10.808;2022-08-19T02:04:35;97844.13;;;19.45;93.17
64078;BME280;51039;49.696;10.808;2022-08-19T02:07:00;97846.28;;;19.42;93.84
64078;BME280;51039;49.696;10.808;2022-08-19T02:09:26;97844.94;;;19.45;93.77
64078;BME280;51039;49.696;10.808;2022-08-19T02:11:52;97839.56;;;19.50;93.53
64078;BME280;51039;49.696;10.808;2022-08-19T02:14:18;97838.75;;;19.50;93.30
64078;BME280;51039;49.696;10.808;2022-08-19T02:16:43;97832.59;;;19.44;93.40
64078;BME280;51039;49.696;10.808;2022-08-19T02:19:08;97831.22;;;19.47;93.88
64078;BME280;51039;49.696;10.808;2022-08-19T02:21:35;97824.50;;;19.49;93.19
64078;BME280;51039;49.696;10.808;2022-08-19T02:24:01;97826.13;;;19.50;92.80
64078;BME280;51039;49.696;10.808;2022-08-19T02:26:27;97838.22;;;19.48;92.84
64078;BME280;51039;49.696;10.808;2022-08-19T02:28:53;97842.50;;;19.43;92.72
64078;BME280;51039;49.696;10.808;2022-08-19T02:31:20;97852.44;;;19.43;92.79
64078;BME280;51039;49.696;10.808;2022-08-19T02:33:47;97857.81;;;19.43;92.71
64078;BME280;51039;49.696;10.808;2022-08-19T02:36:13;97869.09;;;19.45;93.04
64078;BME280;51039;49.696;10.808;2022-08-19T02:38:40;97861.88;;;19.40;93.49
64078;BME280;51039;49.696;10.808;2022-08-19T02:41:07;97875.56;;;19.34;94.02
64078;BME280;51039;49.696;10.808;2022-08-19T02:43:37;97863.22;;;19.33;94.02
64078;BME280;51039;49.696;10.808;2022-08-19T02:46:15;97864.81;;;19.34;93.87
64078;BME280;51039;49.696;10.808;2022-08-19T02:48:46;97863.75;;;19.35;93.68
64078;BME280;51039;49.696;10.808;2022-08-19T02:51:23;97866.19;;;19.36;93.28
64078;BME280;51039;49.696;10.808;2022-08-19T02:53:51;97880.41;;;19.37;92.84
64078;BME280;51039;49.696;10.808;2022-08-19T02:56:18;97892.22;;;19.36;92.83
64078;BME280;51039;49.696;10.808;2022-08-19T02:58:44;97887.38;;;19.38;93.18
64078;BME280;51039;49.696;10.808;2022-08-19T03:01:10;97890.31;;;19.41;93.13
64078;BME280;51039;49.696;10.808;2022-08-19T03:03:37;97891.16;;;19.42;93.18
64078;BME280;51039;49.696;10.808;2022-08-19T03:06:07;97879.31;;;19.38;93.72
64078;BME280;51039;49.696;10.808;2022-08-19T03:08:36;97875.56;;;19.39;93.30
64078;BME280;51039;49.696;10.808;2022-08-19T03:11:02;97885.47;;;19.43;93.14
64078;BME280;51039;49.696;10.808;2022-08-19T03:13:28;97883.09;;;19.42;92.55
64078;BME280;51039;49.696;10.808;2022-08-19T03:15:53;97883.88;;;19.42;92.57
64078;BME280;51039;49.696;10.808;2022-08-19T03:18:19;97890.59;;;19.45;92.34
64078;BME280;51039;49.696;10.808;2022-08-19T03:20:45;97885.75;;;19.47;92.08
64078;BME280;51039;49.696;10.808;2022-08-19T03:23:14;97871.53;;;19.47;92.54
64078;BME280;51039;49.696;10.808;2022-08-19T03:25:42;97862.66;;;19.46;92.42
64078;BME280;51039;49.696;10.808;2022-08-19T03:28:11;97869.09;;;19.45;91.69
64078;BME280;51039;49.696;10.808;2022-08-19T03:30:38;97870.19;;;19.44;92.45
64078;BME280;51039;49.696;10.808;2022-08-19T03:33:07;97872.34;;;19.42;93.63
64078;BME280;51039;49.696;10.808;2022-08-19T03:35:34;97873.16;;;19.42;93.24
64078;BME280;51039;49.696;10.808;2022-08-19T03:38:04;97873.69;;;19.50;92.13
64078;BME280;51039;49.696;10.808;2022-08-19T03:40:30;97864.53;;;19.51;91.43
64078;BME280;51039;49.696;10.808;2022-08-19T03:42:56;97861.56;;;19.52;91.94
64078;BME280;51039;49.696;10.808;2022-08-19T03:45:22;97857.28;;;19.41;92.95
64078;BME280;51039;49.696;10.808;2022-08-19T03:47:47;97856.72;;;19.49;92.89
64078;BME280;51039;49.696;10.808;2022-08-19T03:50:13;97840.59;;;19.54;92.74
64078;BME280;51039;49.696;10.808;2022-08-19T03:52:38;97854.84;;;19.55;93.13
64078;BME280;51039;49.696;10.808;2022-08-19T03:55:04;97846.25;;;19.58;92.00
64078;BME280;51039;49.696;10.808;2022-08-19T03:57:30;97858.09;;;19.52;93.03
64078;BME280;51039;49.696;10.808;2022-08-19T03:59:55;97867.22;;;19.46;93.19
64078;BME280;51039;49.696;10.808;2022-08-19T04:02:20;97859.97;;;19.41;94.40
64078;BME280;51039;49.696;10.808;2022-08-19T04:04:46;97857.03;;;19.42;94.33
64078;BME280;51039;49.696;10.808;2022-08-19T04:07:12;97850.34;;;19.40;94.75
64078;BME280;51039;49.696;10.808;2022-08-19T04:09:41;97839.59;;;19.35;94.74
64078;BME280;51039;49.696;10.808;2022-08-19T04:12:06;97832.09;;;19.27;94.42
64078;BME280;51039;49.696;10.808;2022-08-19T04:14:33;97835.06;;;19.25;94.56
64078;BME280;51039;49.696;10.808;2022-08-19T04:16:59;97834.25;;;19.14;95.46
64078;BME280;51039;49.696;10.808;2022-08-19T04:19:26;97842.34;;;19.09;95.62
64078;BME280;51039;49.696;10.808;2022-08-19T04:21:54;97836.41;;;19.07;95.98
64078;BME280;51039;49.696;10.808;2022-08-19T04:24:20;97839.66;;;19.04;96.40
64078;BME280;51039;49.696;10.808;2022-08-19T04:26:46;97834.28;;;19.04;96.71
64078;BME280;51039;49.696;10.808;2022-08-19T04:29:13;97839.38;;;19.00;96.89
64078;BME280;51039;49.696;10.808;2022-08-19T04:31:42;97843.13;;;18.99;96.98
64078;BME280;51039;49.696;10.808;2022-08-19T04:34:10;97847.16;;;19.02;97.00
64078;BME280;51039;49.696;10.808;2022-08-19T04:36:38;97856.00;;;19.02;96.72
64078;BME280;51039;49.696;10.808;2022-08-19T04:39:06;97850.38;;;19.04;96.77
64078;BME280;51039;49.696;10.808;2022-08-19T04:41:34;97857.09;;;19.07;96.68
64078;BME280;51039;49.696;10.808;2022-08-19T04:44:18;97862.72;;;19.10;96.74
64078;BME280;51039;49.696;10.808;2022-08-19T04:46:45;97855.72;;;19.14;96.39
64078;BME280;51039;49.696;10.808;2022-08-19T04:49:12;97865.16;;;19.17;96.04
64078;BME280;51039;49.696;10.808;2022-08-19T04:51:40;97860.56;;;19.12;96.44
64078;BME280;51039;49.696;10.808;2022-08-19T04:54:08;97865.13;;;19.12;95.91
64078;BME280;51039;49.696;10.808;2022-08-19T04:56:33;97876.94;;;19.11;96.02
64078;BME280;51039;49.696;10.808;2022-08-19T04:58:59;97873.44;;;19.20;95.46
64078;BME280;51039;49.696;10.808;2022-08-19T05:01:28;97885.53;;;19.23;95.21
64078;BME280;51039;49.696;10.808;2022-08-19T05:03:57;97887.41;;;19.28;94.81
64078;BME280;51039;49.696;10.808;2022-08-19T05:06:24;97894.38;;;19.29;93.89
64078;BME280;51039;49.696;10.808;2022-08-19T05:08:50;97895.47;;;19.33;93.78
64078;BME280;51039;49.696;10.808;2022-08-19T05:11:17;97899.75;;;19.29;93.81
64078;BME280;51039;49.696;10.808;2022-08-19T05:13:45;97906.19;;;19.33;93.86
64078;BME280;51039;49.696;10.808;2022-08-19T05:16:12;97913.44;;;19.37;93.43
64078;BME280;51039;49.696;10.808;2022-08-19T05:18:38;97913.69;;;19.41;92.66
64078;BME280;51039;49.696;10.808;2022-08-19T05:21:23;97915.28;;;19.47;92.92
64078;BME280;51039;49.696;10.808;2022-08-19T05:24:09;97916.91;;;19.48;92.19
64078;BME280;51039;49.696;10.808;2022-08-19T05:26:35;97919.59;;;19.48;91.49
64078;BME280;51039;49.696;10.808;2022-08-19T05:29:06;97918.25;;;19.51;91.79
64078;BME280;51039;49.696;10.808;2022-08-19T05:31:32;97918.25;;;19.51;91.91
64078;BME280;51039;49.696;10.808;2022-08-19T05:33:58;97925.50;;;19.45;91.76
64078;BME280;51039;49.696;10.808;2022-08-19T05:36:24;97923.88;;;19.54;92.17
64078;BME280;51039;49.696;10.808;2022-08-19T05:38:51;97934.38;;;19.56;92.07
64078;BME280;51039;49.696;10.808;2022-08-19T05:41:18;97942.16;;;19.57;91.94
64078;BME280;51039;49.696;10.808;2022-08-19T05:43:44;97942.97;;;19.53;91.95
64078;BME280;51039;49.696;10.808;2022-08-19T05:46:15;97953.16;;;19.51;92.23
64078;BME280;51039;49.696;10.808;2022-08-19T05:48:41;97952.38;;;19.55;92.05
64078;BME280;51039;49.696;10.808;2022-08-19T05:51:07;97953.97;;;19.56;92.30
64078;BME280;51039;49.696;10.808;2022-08-19T05:53:33;97952.91;;;19.57;92.51
64078;BME280;51039;49.696;10.808;2022-08-19T05:56:09;97952.06;;;19.62;91.86
64078;BME280;51039;49.696;10.808;2022-08-19T05:58:38;97956.41;;;19.63;92.49
64078;BME280;51039;49.696;10.808;2022-08-19T06:01:04;97953.94;;;19.67;91.96
64078;BME280;51039;49.696;10.808;2022-08-19T06:03:35;97960.94;;;19.68;92.04
64078;BME280;51039;49.696;10.808;2022-08-19T06:06:02;97957.72;;;19.71;91.59
64078;BME280;51039;49.696;10.808;2022-08-19T06:08:32;97955.31;;;19.69;91.87
64078;BME280;51039;49.696;10.808;2022-08-19T06:10:58;97960.97;;;19.73;91.91
64078;BME280;51039;49.696;10.808;2022-08-19T06:13:47;97955.59;;;19.73;90.98
64078;BME280;51039;49.696;10.808;2022-08-19T06:16:15;97957.19;;;19.74;90.98
64078;BME280;51039;49.696;10.808;2022-08-19T06:18:51;97959.34;;;19.72;91.33
64078;BME280;51039;49.696;10.808;2022-08-19T06:21:20;97951.78;;;19.69;91.98
64078;BME280;51039;49.696;10.808;2022-08-19T06:23:47;97959.59;;;19.75;90.99
64078;BME280;51039;49.696;10.808;2022-08-19T06:26:14;97956.66;;;19.77;91.09
64078;BME280;51039;49.696;10.808;2022-08-19T06:28:41;97956.13;;;19.75;91.26
64078;BME280;51039;49.696;10.808;2022-08-19T06:31:10;97961.19;;;19.81;91.39
64078;BME280;51039;49.696;10.808;2022-08-19T06:33:35;97959.84;;;19.94;91.27
64078;BME280;51039;49.696;10.808;2022-08-19T06:36:02;97950.66;;;20.00;91.45
64078;BME280;51039;49.696;10.808;2022-08-19T06:38:28;97945.50;;;20.19;90.42
64078;BME280;51039;49.696;10.808;2022-08-19T06:41:00;97935.94;;;20.48;88.83
64078;BME280;51039;49.696;10.808;2022-08-19T06:43:29;97951.97;;;20.73;86.85
64078;BME280;51039;49.696;10.808;2022-08-19T06:45:54;97943.56;;;20.80;86.94
64078;BME280;51039;49.696;10.808;2022-08-19T06:48:20;97937.88;;;20.87;86.08
64078;BME280;51039;49.696;10.808;2022-08-19T06:50:45;97940.47;;;21.02;85.88
64078;BME280;51039;49.696;10.808;2022-08-19T06:53:12;97945.72;;;20.83;86.66
64078;BME280;51039;49.696;10.808;2022-08-19T06:55:37;97950.09;;;20.69;86.82
64078;BME280;51039;49.696;10.808;2022-08-19T06:58:05;97955.25;;;20.65;86.30
64078;BME280;51039;49.696;10.808;2022-08-19T07:00:30;97956.59;;;20.63;86.08
64078;BME280;51039;49.696;10.808;2022-08-19T07:02:55;97958.84;;;20.90;85.69
64078;BME280;51039;49.696;10.808;2022-08-19T07:05:21;97963.09;;;20.51;83.19
64078;BME280;51039;49.696;10.808;2022-08-19T07:07:47;97964.56;;;20.83;83.92
64078;BME280;51039;49.696;10.808;2022-08-19T07:10:12;97968.31;;;20.82;82.63
64078;BME280;51039;49.696;10.808;2022-08-19T07:12:37;97963.91;;;20.52;84.47
64078;BME280;51039;49.696;10.808;2022-08-19T07:15:04;97962.72;;;20.78;84.32
64078;BME280;51039;49.696;10.808;2022-08-19T07:17:30;97964.22;;;20.90;83.97
64078;BME280;51039;49.696;10.808;2022-08-19T07:19:56;97977.25;;;20.77;82.24
64078;BME280;51039;49.696;10.808;2022-08-19T07:22:21;97978.59;;;20.75;82.83
64078;BME280;51039;49.696;10.808;2022-08-19T07:24:50;97987.56;;;20.55;82.83
64078;BME280;51039;49.696;10.808;2022-08-19T07:27:17;97996.72;;;20.54;82.30
64078;BME280;51039;49.696;10.808;2022-08-19T07:29:43;97996.16;;;20.57;82.44
64078;BME280;51039;49.696;10.808;2022-08-19T07:32:09;97996.75;;;20.44;82.84
64078;BME280;51039;49.696;10.808;2022-08-19T07:34:36;97993.59;;;20.26;82.85
64078;BME280;51039;49.696;10.808;2022-08-19T07:37:03;97992.38;;;20.58;82.49
64078;BME280;51039;49.696;10.808;2022-08-19T07:39:32;97991.03;;;20.66;81.97
64078;BME280;51039;49.696;10.808;2022-08-19T07:42:00;97999.94;;;20.51;82.85
64078;BME280;51039;49.696;10.808;2022-08-19T07:44:28;97995.47;;;20.31;83.66
64078;BME280;51039;49.696;10.808;2022-08-19T07:46:54;98001.31;;;20.48;83.27
64078;BME280;51039;49.696;10.808;2022-08-19T07:49:22;97998.69;;;20.33;83.66
64078;BME280;51039;49.696;10.808;2022-08-19T07:51:49;97995.22;;;20.27;83.89
64078;BME280;51039;49.696;10.808;2022-08-19T07:54:20;98003.56;;;20.26;83.69
64078;BME280;51039;49.696;10.808;2022-08-19T07:56:47;98010.78;;;20.30;84.21
64078;BME280;51039;49.696;10.808;2022-08-19T07:59:14;98011.81;;;20.45;83.56
64078;BME280;51039;49.696;10.808;2022-08-19T08:01:40;98005.84;;;20.58;82.07
64078;BME280;51039;49.696;10.808;2022-08-19T08:04:05;98006.59;;;20.74;82.31
64078;BME280;51039;49.696;10.808;2022-08-19T08:06:50;98005.72;;;20.84;81.44
64078;BME280;51039;49.696;10.808;2022-08-19T08:09:36;98013.63;;;20.65;82.62
64078;BME280;51039;49.696;10.808;2022-08-19T08:12:05;98001.69;;;20.86;79.99
64078;BME280;51039;49.696;10.808;2022-08-19T08:14:37;98007.56;;;20.93;79.78
64078;BME280;51039;49.696;10.808;2022-08-19T08:17:07;98006.13;;;21.06;79.23
64078;BME280;51039;49.696;10.808;2022-08-19T08:19:34;98001.47;;;21.17;79.02
64078;BME280;51039;49.696;10.808;2022-08-19T08:22:00;98002.94;;;21.38;77.53
64078;BME280;51039;49.696;10.808;2022-08-19T08:24:29;97991.69;;;21.66;75.34
64078;BME280;51039;49.696;10.808;2022-08-19T08:26:56;98006.53;;;21.92;75.15
64078;BME280;51039;49.696;10.808;2022-08-19T08:29:23;97991.44;;;22.15;73.65
64078;BME280;51039;49.696;10.808;2022-08-19T08:31:53;97998.78;;;22.34;74.24
64078;BME280;51039;49.696;10.808;2022-08-19T08:34:18;97993.69;;;22.76;70.86
64078;BME280;51039;49.696;10.808;2022-08-19T08:36:45;97991.91;;;22.47;71.29
64078;BME280;51039;49.696;10.808;2022-08-19T08:39:14;97997.63;;;23.02;70.66
64078;BME280;51039;49.696;10.808;2022-08-19T08:47:04;97993.81;;;24.02;67.29
64078;BME280;51039;49.696;10.808;2022-08-19T08:52:34;97984.59;;;23.42;67.48
64078;BME280;51039;49.696;10.808;2022-08-19T08:55:07;97982.56;;;23.34;67.78
64078;BME280;51039;49.696;10.808;2022-08-19T09:00:21;97972.31;;;22.98;68.36
64078;BME280;51039;49.696;10.808;2022-08-19T09:02:55;97971.50;;;22.60;69.25
64078;BME280;51039;49.696;10.808;2022-08-19T09:05:22;97966.97;;;23.12;68.51
64078;BME280;51039;49.696;10.808;2022-08-19T09:13:11;97992.50;;;22.82;69.55
64078;BME280;51039;49.696;10.808;2022-08-19T09:15:54;97990.97;;;22.76;70.69
64078;BME280;51039;49.696;10.808;2022-08-19T09:18:44;97986.66;;;22.74;69.52
64078;BME280;51039;49.696;10.808;2022-08-19T09:21:12;97985.47;;;22.43;70.21
64078;BME280;51039;49.696;10.808;2022-08-19T09:23:39;97998.94;;;22.19;70.70
64078;BME280;51039;49.696;10.808;2022-08-19T09:26:09;97996.38;;;22.08;71.67
64078;BME280;51039;49.696;10.808;2022-08-19T09:28:38;97993.91;;;22.12;71.99
64078;BME280;51039;49.696;10.808;2022-08-19T09:31:07;97995.63;;;22.03;72.02
64078;BME280;51039;49.696;10.808;2022-08-19T09:33:32;97993.84;;;21.93;72.29
64078;BME280;51039;49.696;10.808;2022-08-19T09:36:02;97995.75;;;21.92;72.58
64078;BME280;51039;49.696;10.808;2022-08-19T09:38:28;97997.16;;;22.09;71.59
64078;BME280;51039;49.696;10.808;2022-08-19T09:40:54;97993.16;;;22.06;71.46
64078;BME280;51039;49.696;10.808;2022-08-19T09:43:19;97997.94;;;22.39;71.10
64078;BME280;51039;49.696;10.808;2022-08-19T09:45:44;97994.41;;;22.38;70.81
64078;BME280;51039;49.696;10.808;2022-08-19T09:48:09;97997.34;;;22.42;70.59
64078;BME280;51039;49.696;10.808;2022-08-19T09:50:35;97996.38;;;22.57;70.09
64078;BME280;51039;49.696;10.808;2022-08-19T09:53:03;98002.31;;;22.53;70.37
64078;BME280;51039;49.696;10.808;2022-08-19T09:55:30;98003.16;;;22.54;70.54
64078;BME280;51039;49.696;10.808;2022-08-19T09:57:56;98005.06;;;22.72;70.42
64078;BME280;51039;49.696;10.808;2022-08-19T10:00:21;98000.63;;;22.82;70.24
64078;BME280;51039;49.696;10.808;2022-08-19T10:02:46;98002.97;;;22.88;69.24
64078;BME280;51039;49.696;10.808;2022-08-19T10:05:12;97998.03;;;22.52;70.07
64078;BME280;51039;49.696;10.808;2022-08-19T10:07:55;98005.44;;;22.85;69.85
64078;BME280;51039;49.696;10.808;2022-08-19T10:10:21;98004.91;;;23.02;68.98
64078;BME280;51039;49.696;10.808;2022-08-19T10:12:47;97995.59;;;23.79;66.60
64078;BME280;51039;49.696;10.808;2022-08-19T10:15:12;97987.81;;;24.33;64.31
64078;BME280;51039;49.696;10.808;2022-08-19T10:17:38;97985.44;;;24.31;64.39
64078;BME280;51039;49.696;10.808;2022-08-19T10:20:03;97991.94;;;24.30;64.56
64078;BME280;51039;49.696;10.808;2022-08-19T10:22:29;97990.53;;;24.19;65.34
64078;BME280;51039;49.696;10.808;2022-08-19T10:24:55;97996.44;;;24.07;66.20
64078;BME280;51039;49.696;10.808;2022-08-19T10:27:21;97997.44;;;24.11;66.05
64078;BME280;51039;49.696;10.808;2022-08-19T10:29:46;97989.25;;;24.58;64.35
64078;BME280;51039;49.696;10.808;2022-08-19T10:32:12;97990.59;;;24.83;63.46
64078;BME280;51039;49.696;10.808;2022-08-19T10:34:38;97985.13;;;25.33;62.47
64078;BME280;51039;49.696;10.808;2022-08-19T10:37:04;97991.84;;;24.99;62.68
64078;BME280;51039;49.696;10.808;2022-08-19T10:39:34;97993.69;;;25.13;62.12
64078;BME280;51039;49.696;10.808;2022-08-19T10:42:06;98000.66;;;24.55;63.43
64078;BME280;51039;49.696;10.808;2022-08-19T10:44:35;98010.44;;;23.81;65.62
64078;BME280;51039;49.696;10.808;2022-08-19T10:47:01;98000.56;;;23.58;67.37
64078;BME280;51039;49.696;10.808;2022-08-19T10:49:28;98010.97;;;23.64;66.73
64078;BME280;51039;49.696;10.808;2022-08-19T10:51:54;98003.41;;;23.15;68.68
64078;BME280;51039;49.696;10.808;2022-08-19T10:54:39;97998.25;;;23.32;68.10
64078;BME280;51039;49.696;10.808;2022-08-19T10:57:23;98003.13;;;23.82;67.00
64078;BME280;51039;49.696;10.808;2022-08-19T10:59:53;97998.66;;;24.19;65.57
64078;BME280;51039;49.696;10.808;2022-08-19T11:02:19;97994.34;;;24.04;65.78
64078;BME280;51039;49.696;10.808;2022-08-19T11:04:45;97984.53;;;24.22;65.56
64078;BME280;51039;49.696;10.808;2022-08-19T11:07:10;97994.06;;;24.33;64.65
64078;BME280;51039;49.696;10.808;2022-08-19T11:09:38;97992.63;;;23.94;66.40
64078;BME280;51039;49.696;10.808;2022-08-19T11:12:05;98002.59;;;23.66;66.61
64078;BME280;51039;49.696;10.808;2022-08-19T11:14:33;98000.16;;;23.64;67.10
64078;BME280;51039;49.696;10.808;2022-08-19T11:16:58;97993.78;;;23.41;67.26
64078;BME280;51039;49.696;10.808;2022-08-19T11:19:24;97991.59;;;23.43;67.40
64078;BME280;51039;49.696;10.808;2022-08-19T11:21:49;97984.50;;;23.80;66.45
64078;BME280;51039;49.696;10.808;2022-08-19T11:24:17;97990.78;;;23.76;66.15
64078;BME280;51039;49.696;10.808;2022-08-19T11:26:50;97992.03;;;23.18;67.90
64078;BME280;51039;49.696;10.808;2022-08-19T11:29:18;97997.81;;;23.25;67.98
64078;BME280;51039;49.696;10.808;2022-08-19T11:31:46;98001.31;;;23.11;68.53
64078;BME280;51039;49.696;10.808;2022-08-19T11:34:16;97987.66;;;23.03;68.90
64078;BME280;51039;49.696;10.808;2022-08-19T11:36:45;97989.47;;;22.88;69.42
64078;BME280;51039;49.696;10.808;2022-08-19T11:39:13;97990.25;;;22.70;70.21
64078;BME280;51039;49.696;10.808;2022-08-19T11:41:40;97989.34;;;22.74;69.90
64078;BME280;51039;49.696;10.808;2022-08-19T11:44:05;97990.75;;;22.72;69.90
64078;BME280;51039;49.696;10.808;2022-08-19T11:46:32;97999.31;;;22.79;69.95
64078;BME280;51039;49.696;10.808;2022-08-19T11:48:59;97988.91;;;22.86;69.16
64078;BME280;51039;49.696;10.808;2022-08-19T11:51:27;97994.22;;;22.53;70.55
64078;BME280;51039;49.696;10.808;2022-08-19T11:53:54;97996.00;;;22.63;70.89
64078;BME280;51039;49.696;10.808;2022-08-19T11:56:21;97984.81;;;22.51;71.27
64078;BME280;51039;49.696;10.808;2022-08-19T11:58:47;97987.06;;;22.44;71.68
64078;BME280;51039;49.696;10.808;2022-08-19T12:01:14;97984.31;;;22.49;71.80
64078;BME280;51039;49.696;10.808;2022-08-19T12:03:41;97987.84;;;22.25;72.82
64078;BME280;51039;49.696;10.808;2022-08-19T12:06:09;97987.34;;;22.18;73.33
64078;BME280;51039;49.696;10.808;2022-08-19T12:08:37;97976.38;;;22.09;73.98
64078;BME280;51039;49.696;10.808;2022-08-19T12:11:03;97980.00;;;22.00;74.80
64078;BME280;51039;49.696;10.808;2022-08-19T12:13:28;97982.19;;;22.22;73.25
64078;BME280;51039;49.696;10.808;2022-08-19T12:15:55;97980.59;;;22.45;72.58
64078;BME280;51039;49.696;10.808;2022-08-19T12:18:21;97981.91;;;22.66;71.85
64078;BME280;51039;49.696;10.808;2022-08-19T12:20:47;97984.75;;;22.56;72.09
64078;BME280;51039;49.696;10.808;2022-08-19T12:23:15;97973.56;;;22.44;72.32
64078;BME280;51039;49.696;10.808;2022-08-19T12:25:45;97981.84;;;22.52;71.57
64078;BME280;51039;49.696;10.808;2022-08-19T12:28:15;97976.78;;;22.46;71.40
64078;BME280;51039;49.696;10.808;2022-08-19T12:30:41;97975.00;;;22.60;71.17
64078;BME280;51039;49.696;10.808;2022-08-19T12:33:06;97980.63;;;22.83;70.71
64078;BME280;51039;49.696;10.808;2022-08-19T12:35:32;97976.59;;;22.99;70.08
64078;BME280;51039;49.696;10.808;2022-08-19T12:37:58;97987.69;;;22.79;70.12
64078;BME280;51039;49.696;10.808;2022-08-19T12:40:24;97977.69;;;22.79;69.96
64078;BME280;51039;49.696;10.808;2022-08-19T12:42:49;97978.88;;;22.73;70.30
64078;BME280;51039;49.696;10.808;2022-08-19T12:45:16;97979.00;;;22.82;69.71
64078;BME280;51039;49.696;10.808;2022-08-19T12:47:41;97984.06;;;22.88;69.70
64078;BME280;51039;49.696;10.808;2022-08-19T12:50:07;97977.47;;;22.94;69.83
64078;BME280;51039;49.696;10.808;2022-08-19T12:52:33;97970.09;;;23.00;69.21
64078;BME280;51039;49.696;10.808;2022-08-19T12:55:06;97969.38;;;22.94;69.25
64078;BME280;51039;49.696;10.808;2022-08-19T12:57:32;97972.38;;;22.93;69.30
64078;BME280;51039;49.696;10.808;2022-08-19T13:00:00;97972.88;;;22.76;69.73
64078;BME280;51039;49.696;10.808;2022-08-19T13:02:30;97977.84;;;22.88;69.89
64078;BME280;51039;49.696;10.808;2022-08-19T13:04:57;97974.34;;;22.68;69.80
64078;BME280;51039;49.696;10.808;2022-08-19T13:07:23;97975.72;;;22.66;70.07
64078;BME280;51039;49.696;10.808;2022-08-19T13:09:50;97967.75;;;22.55;70.33